sensor_id;sensor_type;location;lat;lon;timestamp;temperature;humidity
52731;DHT22;38624;53.242;6.974;2022-11-20T00:00:53;2.50;99.90
52731;DHT22;38624;53.242;6.974;2022-11-20T00:03:19;2.40;99.90
52731;DHT22;38624;53.242;6.974;2022-11-20T00:05:45;1.50;99.90
52731;DHT22;38624;53.242;6.974;2022-11-20T00:08:11;2.20;99.90
52731;DHT22;38624;53.242;6.974;2022-11-20T00:10:38;1.20;99.90
52731;DHT22;38624;53.242;6.974;2022-11-20T00:13:04;1.00;99.90
52731;DHT22;38624;53.242;6.974;2022-11-20T00:15:30;1.70;99.90
52731;DHT22;38624;53.242;6.974;2022-11-20T00:17:56;1.50;99.90
52731;DHT22;38624;53.242;6.974;2022-11-20T00:20:22;2.30;99.90
52731;DHT22;38624;53.242;6.974;2022-11-20T00:22:47;2.00;99.90
52731;DHT22;38624;53.242;6.974;2022-11-20T00:25:13;1.80;99.90
52731;DHT22;38624;53.242;6.974;2022-11-20T00:27:39;0.90;99.90
52731;DHT22;38624;53.242;6.974;2022-11-20T00:30:05;0.80;99.90
52731;DHT22;38624;53.242;6.974;2022-11-20T00:32:32;0.80;99.90
52731;DHT22;38624;53.242;6.974;2022-11-20T00:34:57;1.40;99.90
52731;DHT22;38624;53.242;6.974;2022-11-20T00:37:23;1.20;99.90
52731;DHT22;38624;53.242;6.974;2022-11-20T00:39:48;0.90;99.90
52731;DHT22;38624;53.242;6.974;2022-11-20T00:42:14;0.80;99.90
52731;DHT22;38624;53.242;6.974;2022-11-20T00:44:40;1.40;99.90
52731;DHT22;38624;53.242;6.974;2022-11-20T00:47:05;2.60;99.90
52731;DHT22;38624;53.242;6.974;2022-11-20T00:49:31;1.90;99.90
52731;DHT22;38624;53.242;6.974;2022-11-20T00:51:57;1.10;99.90
52731;DHT22;38624;53.242;6.974;2022-11-20T00:54:22;1.10;99.90
52731;DHT22;38624;53.242;6.974;2022-11-20T00:56:48;1.20;99.90
52731;DHT22;38624;53.242;6.974;2022-11-20T00:59:14;1.90;99.90
52731;DHT22;38624;53.242;6.974;2022-11-20T01:01:39;1.00;99.90
52731;DHT22;38624;53.242;6.974;2022-11-20T01:04:05;1.00;99.90
52731;DHT22;38624;53.242;6.974;2022-11-20T01:06:33;2.20;99.90
52731;DHT22;38624;53.242;6.974;2022-11-20T01:09:04;1.00;99.90
52731;DHT22;38624;53.242;6.974;2022-11-20T01:11:32;1.80;99.90
52731;DHT22;38624;53.242;6.974;2022-11-20T01:14:00;2.00;99.90
52731;DHT22;38624;53.242;6.974;2022-11-20T01:16:39;0.90;99.90
52731;DHT22;38624;53.242;6.974;2022-11-20T01:19:07;1.10;99.90
52731;DHT22;38624;53.242;6.974;2022-11-20T01:21:35;0.80;99.90
52731;DHT22;38624;53.242;6.974;2022-11-20T01:24:03;1.80;99.90
52731;DHT22;38624;53.242;6.974;2022-11-20T01:26:32;1.00;99.90
52731;DHT22;38624;53.242;6.974;2022-11-20T01:28:59;1.00;99.90
52731;DHT22;38624;53.242;6.974;2022-11-20T01:31:36;0.90;99.90
52731;DHT22;38624;53.242;6.974;2022-11-20T01:34:07;1.00;99.90
52731;DHT22;38624;53.242;6.974;2022-11-20T01:36:35;0.90;99.90
52731;DHT22;38624;53.242;6.974;2022-11-20T01:39:05;1.00;99.90
52731;DHT22;38624;53.242;6.974;2022-11-20T01:41:32;0.90;99.90
52731;DHT22;38624;53.242;6.974;2022-11-20T01:44:20;1.00;99.90
52731;DHT22;38624;53.242;6.974;2022-11-20T01:46:57;1.20;99.90
52731;DHT22;38624;53.242;6.974;2022-11-20T01:49:34;0.90;99.90
52731;DHT22;38624;53.242;6.974;2022-11-20T01:52:22;2.10;99.90
52731;DHT22;38624;53.242;6.974;2022-11-20T01:54:59;0.80;99.90
52731;DHT22;38624;53.242;6.974;2022-11-20T01:57:28;1.70;99.90
52731;DHT22;38624;53.242;6.974;2022-11-20T02:00:02;0.80;99.90
52731;DHT22;38624;53.242;6.974;2022-11-20T02:02:29;1.50;99.90
52731;DHT22;38624;53.242;6.974;2022-11-20T02:05:00;0.90;99.90
52731;DHT22;38624;53.242;6.974;2022-11-20T02:07:26;0.90;99.90
52731;DHT22;38624;53.242;6.974;2022-11-20T02:09:53;1.00;99.90
52731;DHT22;38624;53.242;6.974;2022-11-20T02:12:19;2.30;99.90
52731;DHT22;38624;53.242;6.974;2022-11-20T02:15:04;1.90;99.90
52731;DHT22;38624;53.242;6.974;2022-11-20T02:17:30;1.00;99.90
52731;DHT22;38624;53.242;6.974;2022-11-20T02:19:56;1.80;99.90
52731;DHT22;38624;53.242;6.974;2022-11-20T02:22:33;1.00;99.90
52731;DHT22;38624;53.242;6.974;2022-11-20T02:25:02;0.90;99.90
52731;DHT22;38624;53.242;6.974;2022-11-20T02:27:28;1.00;99.90
52731;DHT22;38624;53.242;6.974;2022-11-20T02:29:58;1.00;99.90
52731;DHT22;38624;53.242;6.974;2022-11-20T02:34:52;1.00;99.90
52731;DHT22;38624;53.242;6.974;2022-11-20T02:37:18;0.90;99.90
52731;DHT22;38624;53.242;6.974;2022-11-20T02:39:46;0.90;99.90
52731;DHT22;38624;53.242;6.974;2022-11-20T02:42:12;1.60;99.90
52731;DHT22;38624;53.242;6.974;2022-11-20T02:44:37;1.00;99.90
52731;DHT22;38624;53.242;6.974;2022-11-20T02:47:03;0.90;99.90
52731;DHT22;38624;53.242;6.974;2022-11-20T02:49:29;0.90;99.90
52731;DHT22;38624;53.242;6.974;2022-11-20T02:51:55;1.10;99.90
52731;DHT22;38624;53.242;6.974;2022-11-20T02:54:20;1.00;99.90
52731;DHT22;38624;53.242;6.974;2022-11-20T02:56:46;0.90;99.90
52731;DHT22;38624;53.242;6.974;2022-11-20T02:59:12;0.90;99.90
52731;DHT22;38624;53.242;6.974;2022-11-20T03:01:37;0.80;99.90
52731;DHT22;38624;53.242;6.974;2022-11-20T03:04:04;0.90;99.90
52731;DHT22;38624;53.242;6.974;2022-11-20T03:06:29;1.30;99.90
52731;DHT22;38624;53.242;6.974;2022-11-20T03:08:55;0.90;99.90
52731;DHT22;38624;53.242;6.974;2022-11-20T03:11:21;0.90;99.90
52731;DHT22;38624;53.242;6.974;2022-11-20T03:13:46;0.80;99.90
52731;DHT22;38624;53.242;6.974;2022-11-20T03:16:18;0.80;99.90
52731;DHT22;38624;53.242;6.974;2022-11-20T03:18:44;0.80;99.90
52731;DHT22;38624;53.242;6.974;2022-11-20T03:21:11;0.70;99.90
52731;DHT22;38624;53.242;6.974;2022-11-20T03:23:38;0.70;99.90
52731;DHT22;38624;53.242;6.974;2022-11-20T03:26:19;0.80;99.90
52731;DHT22;38624;53.242;6.974;2022-11-20T03:28:53;0.80;99.90
52731;DHT22;38624;53.242;6.974;2022-11-20T03:31:21;1.40;99.90
52731;DHT22;38624;53.242;6.974;2022-11-20T03:33:48;1.00;99.90
52731;DHT22;38624;53.242;6.974;2022-11-20T03:36:15;0.80;99.90
52731;DHT22;38624;53.242;6.974;2022-11-20T03:38:41;1.00;99.90
52731;DHT22;38624;53.242;6.974;2022-11-20T03:41:09;1.30;99.90
52731;DHT22;38624;53.242;6.974;2022-11-20T03:43:35;1.00;99.90
52731;DHT22;38624;53.242;6.974;2022-11-20T03:46:02;1.30;99.90
52731;DHT22;38624;53.242;6.974;2022-11-20T03:48:28;1.30;99.90
52731;DHT22;38624;53.242;6.974;2022-11-20T03:51:13;1.00;99.90
52731;DHT22;38624;53.242;6.974;2022-11-20T03:53:40;1.00;99.90
52731;DHT22;38624;53.242;6.974;2022-11-20T03:56:07;2.40;99.90
52731;DHT22;38624;53.242;6.974;2022-11-20T03:58:34;1.00;99.90
52731;DHT22;38624;53.242;6.974;2022-11-20T04:01:26;0.90;99.90
52731;DHT22;38624;53.242;6.974;2022-11-20T04:03:54;1.90;99.90
52731;DHT22;38624;53.242;6.974;2022-11-20T04:06:33;2.00;99.90
52731;DHT22;38624;53.242;6.974;2022-11-20T04:08:59;1.90;99.90
52731;DHT22;38624;53.242;6.974;2022-11-20T04:11:30;2.60;99.90
52731;DHT22;38624;53.242;6.974;2022-11-20T04:13:58;0.90;99.90
52731;DHT22;38624;53.242;6.974;2022-11-20T04:16:25;0.90;99.90
52731;DHT22;38624;53.242;6.974;2022-11-20T04:18:53;0.90;99.90
52731;DHT22;38624;53.242;6.974;2022-11-20T04:21:19;0.90;99.90
52731;DHT22;38624;53.242;6.974;2022-11-20T04:23:44;0.90;99.90
52731;DHT22;38624;53.242;6.974;2022-11-20T04:26:11;0.90;99.90
52731;DHT22;38624;53.242;6.974;2022-11-20T04:28:39;0.90;99.90
52731;DHT22;38624;53.242;6.974;2022-11-20T04:31:14;0.90;99.90
52731;DHT22;38624;53.242;6.974;2022-11-20T04:33:40;0.90;99.90
52731;DHT22;38624;53.242;6.974;2022-11-20T04:36:11;0.90;99.90
52731;DHT22;38624;53.242;6.974;2022-11-20T04:38:38;0.80;99.90
52731;DHT22;38624;53.242;6.974;2022-11-20T04:41:05;0.80;99.90
52731;DHT22;38624;53.242;6.974;2022-11-20T04:43:32;0.80;99.90
52731;DHT22;38624;53.242;6.974;2022-11-20T04:45:59;1.30;99.90
52731;DHT22;38624;53.242;6.974;2022-11-20T04:48:26;1.20;99.90
52731;DHT22;38624;53.242;6.974;2022-11-20T04:50:53;1.80;99.90
52731;DHT22;38624;53.242;6.974;2022-11-20T04:53:19;0.80;99.90
52731;DHT22;38624;53.242;6.974;2022-11-20T04:55:45;0.80;99.90
52731;DHT22;38624;53.242;6.974;2022-11-20T04:58:11;0.90;99.90
52731;DHT22;38624;53.242;6.974;2022-11-20T05:00:37;0.80;99.90
52731;DHT22;38624;53.242;6.974;2022-11-20T05:03:03;2.10;99.90
52731;DHT22;38624;53.242;6.974;2022-11-20T05:05:29;0.80;99.90
52731;DHT22;38624;53.242;6.974;2022-11-20T05:07:58;0.80;99.90
52731;DHT22;38624;53.242;6.974;2022-11-20T05:10:25;0.80;99.90
52731;DHT22;38624;53.242;6.974;2022-11-20T05:12:51;0.80;99.90
52731;DHT22;38624;53.242;6.974;2022-11-20T05:15:17;1.10;99.90
52731;DHT22;38624;53.242;6.974;2022-11-20T05:17:50;0.80;99.90
52731;DHT22;38624;53.242;6.974;2022-11-20T05:20:16;1.20;99.90
52731;DHT22;38624;53.242;6.974;2022-11-20T05:22:42;0.80;99.90
52731;DHT22;38624;53.242;6.974;2022-11-20T05:25:08;0.80;99.90
52731;DHT22;38624;53.242;6.974;2022-11-20T05:27:34;0.70;99.90
52731;DHT22;38624;53.242;6.974;2022-11-20T05:29:59;0.80;99.90
52731;DHT22;38624;53.242;6.974;2022-11-20T05:32:25;0.80;99.90
52731;DHT22;38624;53.242;6.974;2022-11-20T05:34:52;0.80;99.90
52731;DHT22;38624;53.242;6.974;2022-11-20T05:37:17;0.80;99.90
52731;DHT22;38624;53.242;6.974;2022-11-20T05:39:43;0.70;99.90
52731;DHT22;38624;53.242;6.974;2022-11-20T05:42:09;1.70;99.90
52731;DHT22;38624;53.242;6.974;2022-11-20T05:44:53;0.80;99.90
52731;DHT22;38624;53.242;6.974;2022-11-20T05:47:19;0.80;99.90
52731;DHT22;38624;53.242;6.974;2022-11-20T05:49:44;0.80;99.90
52731;DHT22;38624;53.242;6.974;2022-11-20T05:52:10;0.80;99.90
52731;DHT22;38624;53.242;6.974;2022-11-20T05:54:36;0.80;99.90
52731;DHT22;38624;53.242;6.974;2022-11-20T05:57:01;0.80;99.90
52731;DHT22;38624;53.242;6.974;2022-11-20T05:59:27;0.80;99.90
52731;DHT22;38624;53.242;6.974;2022-11-20T06:01:53;0.80;99.90
52731;DHT22;38624;53.242;6.974;2022-11-20T06:04:18;1.10;99.90
52731;DHT22;38624;53.242;6.974;2022-11-20T06:06:44;1.80;99.90
52731;DHT22;38624;53.242;6.974;2022-11-20T06:09:09;0.80;99.90
52731;DHT22;38624;53.242;6.974;2022-11-20T06:11:35;0.90;99.90
52731;DHT22;38624;53.242;6.974;2022-11-20T06:14:01;2.10;99.90
52731;DHT22;38624;53.242;6.974;2022-11-20T06:16:26;1.60;99.90
52731;DHT22;38624;53.242;6.974;2022-11-20T06:18:52;2.10;99.90
52731;DHT22;38624;53.242;6.974;2022-11-20T06:21:20;0.90;99.90
52731;DHT22;38624;53.242;6.974;2022-11-20T06:23:46;1.40;99.90
52731;DHT22;38624;53.242;6.974;2022-11-20T06:26:15;0.90;99.90
52731;DHT22;38624;53.242;6.974;2022-11-20T06:28:41;0.90;99.90
52731;DHT22;38624;53.242;6.974;2022-11-20T06:31:09;0.90;99.90
52731;DHT22;38624;53.242;6.974;2022-11-20T06:33:35;0.90;99.90
52731;DHT22;38624;53.242;6.974;2022-11-20T06:36:03;0.80;99.90
52731;DHT22;38624;53.242;6.974;2022-11-20T06:38:29;0.80;99.90
52731;DHT22;38624;53.242;6.974;2022-11-20T06:40:55;0.80;99.90
52731;DHT22;38624;53.242;6.974;2022-11-20T06:43:22;0.80;99.90
52731;DHT22;38624;53.242;6.974;2022-11-20T06:45:55;1.40;99.90
52731;DHT22;38624;53.242;6.974;2022-11-20T06:48:22;0.80;99.90
52731;DHT22;38624;53.242;6.974;2022-11-20T06:50:48;2.30;99.90
52731;DHT22;38624;53.242;6.974;2022-11-20T06:53:14;2.20;99.90
52731;DHT22;38624;53.242;6.974;2022-11-20T06:55:44;0.70;99.90
52731;DHT22;38624;53.242;6.974;2022-11-20T06:58:11;0.70;99.90
52731;DHT22;38624;53.242;6.974;2022-11-20T07:00:36;0.70;99.90
52731;DHT22;38624;53.242;6.974;2022-11-20T07:03:06;0.70;99.90
52731;DHT22;38624;53.242;6.974;2022-11-20T07:05:33;0.70;99.90
52731;DHT22;38624;53.242;6.974;2022-11-20T07:07:59;0.80;99.90
52731;DHT22;38624;53.242;6.974;2022-11-20T07:10:25;1.80;99.90
52731;DHT22;38624;53.242;6.974;2022-11-20T07:12:51;0.80;99.90
52731;DHT22;38624;53.242;6.974;2022-11-20T07:15:19;0.80;99.90
52731;DHT22;38624;53.242;6.974;2022-11-20T07:17:45;2.60;99.90
52731;DHT22;38624;53.242;6.974;2022-11-20T07:20:11;0.80;99.90
52731;DHT22;38624;53.242;6.974;2022-11-20T07:22:37;0.80;99.90
52731;DHT22;38624;53.242;6.974;2022-11-20T07:25:03;1.90;99.90
52731;DHT22;38624;53.242;6.974;2022-11-20T07:27:30;0.90;99.90
52731;DHT22;38624;53.242;6.974;2022-11-20T07:29:55;2.30;99.90
52731;DHT22;38624;53.242;6.974;2022-11-20T07:32:21;0.90;99.90
52731;DHT22;38624;53.242;6.974;2022-11-20T07:34:47;0.90;99.90
52731;DHT22;38624;53.242;6.974;2022-11-20T07:37:13;0.90;99.90
52731;DHT22;38624;53.242;6.974;2022-11-20T07:39:39;0.80;99.90
52731;DHT22;38624;53.242;6.974;2022-11-20T07:42:06;0.90;99.90
52731;DHT22;38624;53.242;6.974;2022-11-20T07:44:32;0.90;99.90
52731;DHT22;38624;53.242;6.974;2022-11-20T07:46:58;0.90;99.90
52731;DHT22;38624;53.242;6.974;2022-11-20T07:49:24;1.50;99.90
52731;DHT22;38624;53.242;6.974;2022-11-20T07:51:53;0.90;99.90
52731;DHT22;38624;53.242;6.974;2022-11-20T07:54:20;1.00;99.90
52731;DHT22;38624;53.242;6.974;2022-11-20T07:56:46;1.00;99.90
52731;DHT22;38624;53.242;6.974;2022-11-20T07:59:12;1.10;99.90
52731;DHT22;38624;53.242;6.974;2022-11-20T08:01:38;1.10;99.90
52731;DHT22;38624;53.242;6.974;2022-11-20T08:04:04;1.90;99.90
52731;DHT22;38624;53.242;6.974;2022-11-20T08:06:30;1.10;99.90
52731;DHT22;38624;53.242;6.974;2022-11-20T08:08:56;2.20;99.90
52731;DHT22;38624;53.242;6.974;2022-11-20T08:11:21;1.10;99.90
52731;DHT22;38624;53.242;6.974;2022-11-20T08:14:05;1.20;99.90
52731;DHT22;38624;53.242;6.974;2022-11-20T08:16:38;1.20;99.90
52731;DHT22;38624;53.242;6.974;2022-11-20T08:19:03;1.20;99.90
52731;DHT22;38624;53.242;6.974;2022-11-20T08:21:30;1.20;99.90
52731;DHT22;38624;53.242;6.974;2022-11-20T08:23:57;1.20;99.90
52731;DHT22;38624;53.242;6.974;2022-11-20T08:26:23;1.30;99.90
52731;DHT22;38624;53.242;6.974;2022-11-20T08:28:49;1.20;99.90
52731;DHT22;38624;53.242;6.974;2022-11-20T08:31:14;1.30;99.90
52731;DHT22;38624;53.242;6.974;2022-11-20T08:33:40;1.80;99.90
52731;DHT22;38624;53.242;6.974;2022-11-20T08:36:06;1.50;99.90
52731;DHT22;38624;53.242;6.974;2022-11-20T08:38:32;1.30;99.90
52731;DHT22;38624;53.242;6.974;2022-11-20T08:40:59;2.30;99.90
52731;DHT22;38624;53.242;6.974;2022-11-20T08:43:44;1.40;99.90
52731;DHT22;38624;53.242;6.974;2022-11-20T08:46:10;3.40;99.90
52731;DHT22;38624;53.242;6.974;2022-11-20T08:48:35;2.50;99.90
52731;DHT22;38624;53.242;6.974;2022-11-20T08:51:01;1.60;99.90
52731;DHT22;38624;53.242;6.974;2022-11-20T08:53:27;1.70;99.90
52731;DHT22;38624;53.242;6.974;2022-11-20T08:55:53;2.10;99.90
52731;DHT22;38624;53.242;6.974;2022-11-20T08:58:19;1.70;99.90
52731;DHT22;38624;53.242;6.974;2022-11-20T09:00:44;1.70;99.90
52731;DHT22;38624;53.242;6.974;2022-11-20T09:03:10;1.70;99.90
52731;DHT22;38624;53.242;6.974;2022-11-20T09:05:36;1.70;99.90
52731;DHT22;38624;53.242;6.974;2022-11-20T09:08:01;1.80;99.90
52731;DHT22;38624;53.242;6.974;2022-11-20T09:10:27;1.80;99.90
52731;DHT22;38624;53.242;6.974;2022-11-20T09:12:53;3.20;99.90
52731;DHT22;38624;53.242;6.974;2022-11-20T09:15:20;2.00;99.90
52731;DHT22;38624;53.242;6.974;2022-11-20T09:17:58;2.10;99.90
52731;DHT22;38624;53.242;6.974;2022-11-20T09:20:25;2.40;99.90
52731;DHT22;38624;53.242;6.974;2022-11-20T09:22:51;2.00;99.90
52731;DHT22;38624;53.242;6.974;2022-11-20T09:25:17;2.00;99.90
52731;DHT22;38624;53.242;6.974;2022-11-20T09:27:42;1.90;99.90
52731;DHT22;38624;53.242;6.974;2022-11-20T09:30:12;2.10;99.90
52731;DHT22;38624;53.242;6.974;2022-11-20T09:32:44;1.90;99.90
52731;DHT22;38624;53.242;6.974;2022-11-20T09:35:10;1.90;99.90
52731;DHT22;38624;53.242;6.974;2022-11-20T09:37:37;2.00;99.90
52731;DHT22;38624;53.242;6.974;2022-11-20T09:40:03;2.10;99.90
52731;DHT22;38624;53.242;6.974;2022-11-20T09:45:23;2.80;99.90
52731;DHT22;38624;53.242;6.974;2022-11-20T09:56:14;2.50;99.90
52731;DHT22;38624;53.242;6.974;2022-11-20T09:58:50;2.50;99.90
52731;DHT22;38624;53.242;6.974;2022-11-20T10:01:19;2.60;99.90
52731;DHT22;38624;53.242;6.974;2022-11-20T10:04:17;2.80;99.90
52731;DHT22;38624;53.242;6.974;2022-11-20T10:07:13;2.90;99.90
52731;DHT22;38624;53.242;6.974;2022-11-20T10:09:53;3.00;99.90
52731;DHT22;38624;53.242;6.974;2022-11-20T10:12:47;3.10;99.90
52731;DHT22;38624;53.242;6.974;2022-11-20T10:21:09;3.30;99.90
52731;DHT22;38624;53.242;6.974;2022-11-20T10:23:58;3.30;99.90
52731;DHT22;38624;53.242;6.974;2022-11-20T10:26:58;3.30;99.90
52731;DHT22;38624;53.242;6.974;2022-11-20T10:29:34;3.20;99.90
52731;DHT22;38624;53.242;6.974;2022-11-20T10:32:03;3.90;99.90
52731;DHT22;38624;53.242;6.974;2022-11-20T10:34:48;4.20;99.90
52731;DHT22;38624;53.242;6.974;2022-11-20T10:37:26;3.20;99.90
52731;DHT22;38624;53.242;6.974;2022-11-20T10:42:45;3.20;99.90
52731;DHT22;38624;53.242;6.974;2022-11-20T10:47:50;3.20;99.90
52731;DHT22;38624;53.242;6.974;2022-11-20T10:50:19;4.60;99.90
52731;DHT22;38624;53.242;6.974;2022-11-20T10:53:40;3.20;99.90
52731;DHT22;38624;53.242;6.974;2022-11-20T10:55:46;3.20;99.90
52731;DHT22;38624;53.242;6.974;2022-11-20T10:58:35;3.20;99.90
52731;DHT22;38624;53.242;6.974;2022-11-20T11:01:18;3.20;99.90
52731;DHT22;38624;53.242;6.974;2022-11-20T11:03:47;3.30;99.90
52731;DHT22;38624;53.242;6.974;2022-11-20T11:06:40;3.30;99.90
52731;DHT22;38624;53.242;6.974;2022-11-20T11:09:17;3.30;99.90
52731;DHT22;38624;53.242;6.974;2022-11-20T11:11:44;3.40;99.90
52731;DHT22;38624;53.242;6.974;2022-11-20T11:14:13;3.40;99.90
52731;DHT22;38624;53.242;6.974;2022-11-20T11:16:56;3.50;99.90
52731;DHT22;38624;53.242;6.974;2022-11-20T11:19:22;3.90;99.90
52731;DHT22;38624;53.242;6.974;2022-11-20T11:21:53;3.80;99.90
52731;DHT22;38624;53.242;6.974;2022-11-20T11:24:22;4.00;99.90
52731;DHT22;38624;53.242;6.974;2022-11-20T11:27:03;3.80;99.90
52731;DHT22;38624;53.242;6.974;2022-11-20T11:29:32;3.90;99.90
52731;DHT22;38624;53.242;6.974;2022-11-20T11:32:17;3.90;99.90
52731;DHT22;38624;53.242;6.974;2022-11-20T11:34:43;4.00;99.90
52731;DHT22;38624;53.242;6.974;2022-11-20T11:37:20;4.00;99.90
52731;DHT22;38624;53.242;6.974;2022-11-20T11:39:50;4.90;99.90
52731;DHT22;38624;53.242;6.974;2022-11-20T11:42:19;4.10;99.90
52731;DHT22;38624;53.242;6.974;2022-11-20T11:44:47;4.40;99.90
52731;DHT22;38624;53.242;6.974;2022-11-20T11:47:51;4.20;99.90
52731;DHT22;38624;53.242;6.974;2022-11-20T11:55:27;4.20;99.90
52731;DHT22;38624;53.242;6.974;2022-11-20T11:58:17;5.40;99.90
52731;DHT22;38624;53.242;6.974;2022-11-20T12:06:59;4.10;99.90
52731;DHT22;38624;53.242;6.974;2022-11-20T12:09:37;4.10;99.90
52731;DHT22;38624;53.242;6.974;2022-11-20T12:12:18;4.10;99.90
52731;DHT22;38624;53.242;6.974;2022-11-20T12:14:48;4.10;99.90
52731;DHT22;38624;53.242;6.974;2022-11-20T12:17:16;4.20;99.90
52731;DHT22;38624;53.242;6.974;2022-11-20T12:19:43;4.60;99.90
52731;DHT22;38624;53.242;6.974;2022-11-20T12:30:16;4.00;99.90
52731;DHT22;38624;53.242;6.974;2022-11-20T12:43:46;3.90;99.90
52731;DHT22;38624;53.242;6.974;2022-11-20T12:46:44;4.80;99.90
52731;DHT22;38624;53.242;6.974;2022-11-20T12:57:18;3.90;99.90
52731;DHT22;38624;53.242;6.974;2022-11-20T13:07:43;3.70;99.90
52731;DHT22;38624;53.242;6.974;2022-11-20T13:10:23;3.70;99.90
52731;DHT22;38624;53.242;6.974;2022-11-20T13:13:01;3.70;99.90
52731;DHT22;38624;53.242;6.974;2022-11-20T13:15:37;3.70;99.90
52731;DHT22;38624;53.242;6.974;2022-11-20T13:18:10;3.60;99.90
52731;DHT22;38624;53.242;6.974;2022-11-20T13:20:41;3.60;99.90
52731;DHT22;38624;53.242;6.974;2022-11-20T13:23:07;3.50;99.90
52731;DHT22;38624;53.242;6.974;2022-11-20T13:25:34;4.30;99.90
52731;DHT22;38624;53.242;6.974;2022-11-20T13:28:24;3.50;99.90
52731;DHT22;38624;53.242;6.974;2022-11-20T13:30:52;3.60;99.90
52731;DHT22;38624;53.242;6.974;2022-11-20T13:33:36;3.40;99.90
52731;DHT22;38624;53.242;6.974;2022-11-20T13:36:06;3.50;99.90
52731;DHT22;38624;53.242;6.974;2022-11-20T13:38:47;3.50;99.90
52731;DHT22;38624;53.242;6.974;2022-11-20T13:41:56;4.90;99.90
52731;DHT22;38624;53.242;6.974;2022-11-20T13:44:29;3.70;99.90
52731;DHT22;38624;53.242;6.974;2022-11-20T13:46:55;3.70;99.90
52731;DHT22;38624;53.242;6.974;2022-11-20T13:49:32;4.20;99.90
52731;DHT22;38624;53.242;6.974;2022-11-20T14:00:18;4.00;99.90
52731;DHT22;38624;53.242;6.974;2022-11-20T14:02:44;4.10;99.90
52731;DHT22;38624;53.242;6.974;2022-11-20T14:05:23;4.80;99.90
52731;DHT22;38624;53.242;6.974;2022-11-20T14:07:50;4.70;99.90
52731;DHT22;38624;53.242;6.974;2022-11-20T14:10:21;4.00;99.90
52731;DHT22;38624;53.242;6.974;2022-11-20T14:12:47;4.00;99.90
52731;DHT22;38624;53.242;6.974;2022-11-20T14:15:34;3.90;99.90
52731;DHT22;38624;53.242;6.974;2022-11-20T14:18:12;4.50;99.90
52731;DHT22;38624;53.242;6.974;2022-11-20T14:20:38;3.80;99.90
52731;DHT22;38624;53.242;6.974;2022-11-20T14:23:04;3.80;99.90
52731;DHT22;38624;53.242;6.974;2022-11-20T14:25:30;3.90;99.90
52731;DHT22;38624;53.242;6.974;2022-11-20T14:28:01;5.30;99.90
52731;DHT22;38624;53.242;6.974;2022-11-20T14:30:36;4.00;99.90
52731;DHT22;38624;53.242;6.974;2022-11-20T14:33:04;3.80;99.90
52731;DHT22;38624;53.242;6.974;2022-11-20T14:35:31;4.70;99.90
52731;DHT22;38624;53.242;6.974;2022-11-20T14:38:01;5.00;99.90
52731;DHT22;38624;53.242;6.974;2022-11-20T14:42:55;3.50;99.90
52731;DHT22;38624;53.242;6.974;2022-11-20T14:45:21;3.40;99.90
52731;DHT22;38624;53.242;6.974;2022-11-20T14:47:48;3.30;99.90
52731;DHT22;38624;53.242;6.974;2022-11-20T14:50:24;3.30;99.90
52731;DHT22;38624;53.242;6.974;2022-11-20T14:52:56;3.30;99.90
52731;DHT22;38624;53.242;6.974;2022-11-20T14:55:32;3.10;99.90
52731;DHT22;38624;53.242;6.974;2022-11-20T14:58:03;3.00;99.90
52731;DHT22;38624;53.242;6.974;2022-11-20T15:00:31;2.90;99.90
52731;DHT22;38624;53.242;6.974;2022-11-20T15:02:57;2.90;99.90
52731;DHT22;38624;53.242;6.974;2022-11-20T15:05:26;2.80;99.90
52731;DHT22;38624;53.242;6.974;2022-11-20T15:08:06;2.70;99.90
52731;DHT22;38624;53.242;6.974;2022-11-20T15:10:33;2.60;99.90
52731;DHT22;38624;53.242;6.974;2022-11-20T15:13:12;2.50;99.90
52731;DHT22;38624;53.242;6.974;2022-11-20T15:15:48;2.50;99.90
52731;DHT22;38624;53.242;6.974;2022-11-20T15:18:19;2.40;99.90
52731;DHT22;38624;53.242;6.974;2022-11-20T15:20:46;2.40;99.90
52731;DHT22;38624;53.242;6.974;2022-11-20T15:23:14;2.30;99.90
52731;DHT22;38624;53.242;6.974;2022-11-20T15:25:40;3.60;99.90
52731;DHT22;38624;53.242;6.974;2022-11-20T15:28:17;2.20;99.90
52731;DHT22;38624;53.242;6.974;2022-11-20T15:30:45;2.20;99.90
52731;DHT22;38624;53.242;6.974;2022-11-20T15:33:10;2.10;99.90
52731;DHT22;38624;53.242;6.974;2022-11-20T15:35:36;2.10;99.90
52731;DHT22;38624;53.242;6.974;2022-11-20T15:38:02;2.10;99.90
52731;DHT22;38624;53.242;6.974;2022-11-20T15:40:27;2.00;99.90
52731;DHT22;38624;53.242;6.974;2022-11-20T15:42:53;2.00;99.90
52731;DHT22;38624;53.242;6.974;2022-11-20T15:45:31;1.90;99.90
52731;DHT22;38624;53.242;6.974;2022-11-20T15:47:58;1.90;99.90
52731;DHT22;38624;53.242;6.974;2022-11-20T15:50:29;1.90;99.90
52731;DHT22;38624;53.242;6.974;2022-11-20T15:52:55;1.80;99.90
52731;DHT22;38624;53.242;6.974;2022-11-20T15:55:21;2.80;99.90
52731;DHT22;38624;53.242;6.974;2022-11-20T15:57:46;1.80;99.90
52731;DHT22;38624;53.242;6.974;2022-11-20T16:00:12;1.70;99.90
52731;DHT22;38624;53.242;6.974;2022-11-20T16:02:38;1.70;99.90
52731;DHT22;38624;53.242;6.974;2022-11-20T16:05:04;1.70;99.90
52731;DHT22;38624;53.242;6.974;2022-11-20T16:07:35;1.70;99.90
52731;DHT22;38624;53.242;6.974;2022-11-20T16:10:00;2.30;99.90
52731;DHT22;38624;53.242;6.974;2022-11-20T16:12:26;1.70;99.90
52731;DHT22;38624;53.242;6.974;2022-11-20T16:15:11;1.80;99.90
52731;DHT22;38624;53.242;6.974;2022-11-20T16:17:55;1.60;99.90
52731;DHT22;38624;53.242;6.974;2022-11-20T16:20:20;1.60;99.90
52731;DHT22;38624;53.242;6.974;2022-11-20T16:22:46;1.60;99.90
52731;DHT22;38624;53.242;6.974;2022-11-20T16:25:12;1.60;99.90
52731;DHT22;38624;53.242;6.974;2022-11-20T16:27:37;1.60;99.90
52731;DHT22;38624;53.242;6.974;2022-11-20T16:30:03;1.60;99.90
52731;DHT22;38624;53.242;6.974;2022-11-20T16:32:29;1.60;99.90
52731;DHT22;38624;53.242;6.974;2022-11-20T16:34:55;1.60;99.90
52731;DHT22;38624;53.242;6.974;2022-11-20T16:37:20;3.00;99.90
52731;DHT22;38624;53.242;6.974;2022-11-20T16:39:46;1.50;99.90
52731;DHT22;38624;53.242;6.974;2022-11-20T16:42:11;1.80;99.90
52731;DHT22;38624;53.242;6.974;2022-11-20T16:44:37;2.90;99.90
52731;DHT22;38624;53.242;6.974;2022-11-20T16:47:03;1.50;99.90
52731;DHT22;38624;53.242;6.974;2022-11-20T16:49:29;1.50;99.90
52731;DHT22;38624;53.242;6.974;2022-11-20T16:51:55;2.30;99.90
52731;DHT22;38624;53.242;6.974;2022-11-20T16:54:20;1.50;99.90
52731;DHT22;38624;53.242;6.974;2022-11-20T16:56:46;1.60;99.90
52731;DHT22;38624;53.242;6.974;2022-11-20T16:59:12;1.50;99.90
52731;DHT22;38624;53.242;6.974;2022-11-20T17:01:38;1.50;99.90
52731;DHT22;38624;53.242;6.974;2022-11-20T17:04:06;1.40;99.90
52731;DHT22;38624;53.242;6.974;2022-11-20T17:06:37;1.40;99.90
52731;DHT22;38624;53.242;6.974;2022-11-20T17:09:05;1.40;99.90
52731;DHT22;38624;53.242;6.974;2022-11-20T17:11:34;2.70;99.90
52731;DHT22;38624;53.242;6.974;2022-11-20T17:14:00;2.80;99.90
52731;DHT22;38624;53.242;6.974;2022-11-20T17:16:26;1.40;99.90
52731;DHT22;38624;53.242;6.974;2022-11-20T17:18:54;1.40;99.90
52731;DHT22;38624;53.242;6.974;2022-11-20T17:21:20;2.80;99.90